Aérodrome :
LOGIN :

S'inscrire | Disclaimer

   EN    FR    IT 

 










Légende :    VFR   VFR Marginal   IFR   IFR Intensif   IFR Très Intensif
Visi : 
Plafond : 
>= 8 km
>= 3000ft
5 à 8 km
1000 à 3000 ft
1500m à 5 km
500 à 1000 ft
800 à 1500m
200 à 500 ft
< 800m
< 200 ft
Symboles :   Orages  Brouillard  Fortes neiges  Fortes précipitations  Vent > 20 kt
SIGMETs :   Divers  Orages  Givrage  Turbulence  Onde Orograph.  Cendres Volcan.






- Altitude de l'aérodrome : 274 ft
- Code IATA : PUY


LDPL - Pula

DERNIER METAR :
  • 082100Z 12016G28KT 060V140 6000 RA FEW015 OVC020 09/07 Q0999

METARs EXPIRÉS :
  • 082030Z 12014G29KT 090V170 9999 -RA FEW015 OVC020 09/07 Q0999
  • 082000Z 12014KT 090V160 9999 -RA FEW015 OVC020 09/06 Q1000
  • 081930Z 13014G24KT 090V160 9999 -RA BKN015 OVC020 08/06 Q1000 RERA
  • 081900Z 12017G28KT 090V150 9000 RA BKN015 OVC023 09/06 Q1000
  • 081830Z 13013G23KT 100V170 9000 RA BKN020 OVC025 09/07 Q1001 NOSIG

TAF TAF LDPL
Valide du 08 à 18h jusqu'au 09 à 18h UTC


081725Z 0818/0918 12015G25KT 9999 BKN030 TX11/0820Z TN05/0917Z
TEMPO 0818/0903 RA BKN010 OVC030
PROB40
TEMPO 0819/0823 13025G35KT 3000 TSRA SCT020CB OVC025
BECMG 0822/0900 27009KT
PROB30
TEMPO 0823/0906 SHRA BKN012 SCT020TCU BKN030
PROB30
TEMPO 0906/0918 BKN012



MET'MAP, la Météo Aéronautique d'un coup d'oeil ! - Copyright ORBIFLY Décembre 2007 - Disclaimer

ORBIFLY MET'MAP TEAM :

Programmation & Développement : Alexandra Zaïnal
Sur une idée originale de : Baudouin d'Aumeries
Assistance à la programmation : Marc-Olivier Méhu
Soutien technique & logistique : Manuel Goepfert

Contact : metmap@orbifly.com




SOURCES & CREDITS :

   NOAA